WAT4275 RJBB-RCTP
Flight info
| Callsign | WAT4275 |
|---|---|
| Flight time | 2h 11m |
| Altitude | 36000 |
| Route | OMGOR Y34 HKC Y50 IGMON A1 DRAKE DRAKE1A |
| Aircraft | B764/H-SDE3FGHIM3RWXY/LB1 |
Departure
| Time | 2026-05-07 20:08 |
|---|---|
| Airport | Kansai International Airport (RJBB) |
Arrival
| Time | 2026-05-07 22:19 |
|---|---|
| Airport | Taiwan Taoyuan International Airport (RCTP) |
| Time | Latitude | Longitude | Altitude | Speed | Heading |
|---|---|---|---|---|---|
| 2026-05-07 20:04 | 34.43834 | 135.25238 | 20 ft | 0 kts | 319° |
| 2026-05-07 20:05 | 34.43827 | 135.25246 | 26 ft | 8 kts | 319° |
| 2026-05-07 20:05 | 34.43782 | 135.25291 | 28 ft | 1 kts | 1° |
| 2026-05-07 20:05 | 34.43798 | 135.25308 | 28 ft | 3 kts | 59° |
| 2026-05-07 20:06 | 34.43827 | 135.25374 | 25 ft | 14 kts | 58° |
| 2026-05-07 20:06 | 34.43832 | 135.25502 | 26 ft | 18 kts | 83° |
| 2026-05-07 20:06 | 34.43816 | 135.25623 | 30 ft | 13 kts | 137° |
| 2026-05-07 20:06 | 34.43729 | 135.25710 | 28 ft | 19 kts | 141° |
| 2026-05-07 20:07 | 34.43620 | 135.25723 | 27 ft | 18 kts | 221° |
| 2026-05-07 20:07 | 34.43597 | 135.25691 | 27 ft | 0 kts | 229° |
| 2026-05-07 20:08 | 34.43461 | 135.25490 | 28 ft | 79 kts | 231° |
| 2026-05-07 20:08 | 34.42899 | 135.24657 | 27 ft | 175 kts | 231° |
| 2026-05-07 20:08 | 34.42017 | 135.23359 | 690 ft | 229 kts | 231° |
| 2026-05-07 20:08 | 34.41026 | 135.21859 | 2244 ft | 211 kts | 232° |
| 2026-05-07 20:09 | 34.40040 | 135.20386 | 3675 ft | 239 kts | 230° |
| 2026-05-07 20:09 | 34.38957 | 135.18810 | 5274 ft | 247 kts | 231° |
| 2026-05-07 20:09 | 34.37942 | 135.17129 | 6927 ft | 254 kts | 236° |
| 2026-05-07 20:10 | 34.36011 | 135.13401 | 10099 ft | 268 kts | 243° |
| 2026-05-07 20:10 | 34.35150 | 135.11300 | 11281 ft | 291 kts | 244° |
| 2026-05-07 20:10 | 34.34226 | 135.09015 | 12444 ft | 312 kts | 244° |
| 2026-05-07 20:10 | 34.33211 | 135.06597 | 13653 ft | 331 kts | 243° |
| 2026-05-07 20:11 | 34.32131 | 135.04048 | 14855 ft | 349 kts | 243° |
| 2026-05-07 20:11 | 34.31016 | 135.01400 | 16076 ft | 365 kts | 243° |
| 2026-05-07 20:11 | 34.29845 | 134.98607 | 17277 ft | 380 kts | 243° |
| 2026-05-07 20:11 | 34.28623 | 134.95707 | 18468 ft | 394 kts | 243° |
| 2026-05-07 20:12 | 34.27362 | 134.92715 | 19684 ft | 404 kts | 243° |
| 2026-05-07 20:12 | 34.26070 | 134.89654 | 20958 ft | 412 kts | 243° |
| 2026-05-07 20:12 | 34.24753 | 134.86534 | 22179 ft | 420 kts | 243° |
| 2026-05-07 20:12 | 34.23410 | 134.83352 | 23364 ft | 429 kts | 243° |
| 2026-05-07 20:13 | 34.22037 | 134.80110 | 24458 ft | 438 kts | 243° |
| 2026-05-07 20:13 | 34.20639 | 134.76804 | 25580 ft | 444 kts | 243° |
| 2026-05-07 20:13 | 34.19222 | 134.73460 | 26641 ft | 451 kts | 243° |
| 2026-05-07 20:13 | 34.17779 | 134.70061 | 27679 ft | 458 kts | 243° |
| 2026-05-07 20:14 | 34.16299 | 134.66624 | 28660 ft | 465 kts | 242° |
| 2026-05-07 20:14 | 34.14678 | 134.63212 | 29579 ft | 473 kts | 236° |
| 2026-05-07 20:14 | 34.12771 | 134.59944 | 30497 ft | 479 kts | 236° |
| 2026-05-07 20:14 | 34.10899 | 134.56615 | 31683 ft | 479 kts | 236° |
| 2026-05-07 20:15 | 34.09039 | 134.53354 | 32910 ft | 477 kts | 236° |
| 2026-05-07 20:15 | 34.07163 | 134.50067 | 34083 ft | 475 kts | 236° |
| 2026-05-07 20:15 | 34.05304 | 134.46802 | 35147 ft | 468 kts | 236° |
| 2026-05-07 20:15 | 34.03479 | 134.43570 | 35610 ft | 468 kts | 236° |
| 2026-05-07 20:16 | 34.01601 | 134.40324 | 35816 ft | 474 kts | 235° |
| 2026-05-07 20:16 | 33.99706 | 134.37044 | 35920 ft | 477 kts | 235° |
| 2026-05-07 20:16 | 33.97816 | 134.33762 | 35959 ft | 475 kts | 235° |
| 2026-05-07 20:17 | 33.94687 | 134.28346 | 35987 ft | 471 kts | 235° |
| 2026-05-07 20:17 | 33.90297 | 134.20817 | 36000 ft | 476 kts | 234° |
| 2026-05-07 20:18 | 33.87102 | 134.15398 | 36008 ft | 479 kts | 234° |
| 2026-05-07 20:18 | 33.83233 | 134.08858 | 36001 ft | 480 kts | 234° |
| 2026-05-07 20:19 | 33.79366 | 134.02326 | 36001 ft | 476 kts | 234° |
| 2026-05-07 20:19 | 33.75520 | 133.95846 | 36004 ft | 477 kts | 234° |
| 2026-05-07 20:20 | 33.71661 | 133.89353 | 36003 ft | 476 kts | 234° |
| 2026-05-07 20:20 | 33.67844 | 133.82944 | 36000 ft | 468 kts | 234° |
| 2026-05-07 20:21 | 33.64046 | 133.76570 | 36001 ft | 470 kts | 234° |
| 2026-05-07 20:21 | 33.60247 | 133.70233 | 36000 ft | 471 kts | 234° |
| 2026-05-07 20:22 | 33.56428 | 133.63868 | 35997 ft | 468 kts | 234° |
| 2026-05-07 20:22 | 33.52614 | 133.57522 | 36001 ft | 470 kts | 234° |
| 2026-05-07 20:23 | 33.48788 | 133.51166 | 36000 ft | 470 kts | 234° |
| 2026-05-07 20:23 | 33.44973 | 133.44824 | 36002 ft | 469 kts | 234° |
| 2026-05-07 20:24 | 33.41128 | 133.38508 | 35998 ft | 470 kts | 234° |
| 2026-05-07 20:24 | 33.37303 | 133.32232 | 35997 ft | 470 kts | 234° |
| 2026-05-07 20:25 | 33.33450 | 133.25927 | 35998 ft | 469 kts | 234° |
| 2026-05-07 20:25 | 33.29591 | 133.19624 | 36004 ft | 470 kts | 234° |
| 2026-05-07 20:26 | 33.25708 | 133.13290 | 36002 ft | 473 kts | 234° |
| 2026-05-07 20:26 | 33.21824 | 133.06965 | 35998 ft | 471 kts | 234° |
| 2026-05-07 20:27 | 33.17941 | 133.00656 | 35999 ft | 472 kts | 234° |
| 2026-05-07 20:27 | 33.14075 | 132.94381 | 35999 ft | 472 kts | 233° |
| 2026-05-07 20:28 | 33.10179 | 132.88072 | 36005 ft | 472 kts | 233° |
| 2026-05-07 20:28 | 33.06280 | 132.81766 | 35998 ft | 471 kts | 233° |
| 2026-05-07 20:29 | 33.03028 | 132.75068 | 36015 ft | 470 kts | 252° |
| 2026-05-07 20:29 | 33.01541 | 132.67479 | 36022 ft | 471 kts | 263° |
| 2026-05-07 20:30 | 33.00615 | 132.59735 | 36006 ft | 471 kts | 262° |
| 2026-05-07 20:30 | 32.99691 | 132.52007 | 35994 ft | 471 kts | 262° |
| 2026-05-07 20:31 | 32.98758 | 132.44314 | 35994 ft | 468 kts | 262° |
| 2026-05-07 20:31 | 32.96816 | 132.36996 | 36018 ft | 468 kts | 239° |
| 2026-05-07 20:32 | 32.93005 | 132.30750 | 36016 ft | 471 kts | 230° |
| 2026-05-07 20:32 | 32.88823 | 132.24757 | 35996 ft | 469 kts | 230° |
| 2026-05-07 20:33 | 32.84646 | 132.18807 | 35994 ft | 469 kts | 230° |
| 2026-05-07 20:33 | 32.80455 | 132.12832 | 35997 ft | 470 kts | 230° |
| 2026-05-07 20:34 | 32.76289 | 132.06907 | 35994 ft | 469 kts | 230° |
| 2026-05-07 20:34 | 32.72098 | 132.00954 | 35998 ft | 469 kts | 230° |
| 2026-05-07 20:35 | 32.67913 | 131.95019 | 35997 ft | 469 kts | 230° |
| 2026-05-07 20:35 | 32.63711 | 131.89070 | 35997 ft | 470 kts | 230° |
| 2026-05-07 20:36 | 32.59510 | 131.83135 | 35999 ft | 469 kts | 230° |
| 2026-05-07 20:36 | 32.55318 | 131.77210 | 36003 ft | 469 kts | 230° |
| 2026-05-07 20:37 | 32.51118 | 131.71289 | 36003 ft | 470 kts | 230° |
| 2026-05-07 20:37 | 32.46910 | 131.65363 | 36003 ft | 470 kts | 230° |
| 2026-05-07 20:38 | 32.42707 | 131.59456 | 36002 ft | 469 kts | 230° |
| 2026-05-07 20:38 | 32.38521 | 131.53581 | 36005 ft | 470 kts | 230° |
| 2026-05-07 20:39 | 32.34284 | 131.47646 | 35999 ft | 472 kts | 230° |
| 2026-05-07 20:39 | 32.30023 | 131.41684 | 36003 ft | 477 kts | 230° |
| 2026-05-07 20:40 | 32.25751 | 131.35718 | 35994 ft | 472 kts | 230° |
| 2026-05-07 20:40 | 32.21507 | 131.29798 | 35998 ft | 471 kts | 230° |
| 2026-05-07 20:41 | 32.17284 | 131.23919 | 36001 ft | 472 kts | 230° |
| 2026-05-07 20:41 | 32.13015 | 131.17985 | 36003 ft | 476 kts | 230° |
| 2026-05-07 20:42 | 32.08726 | 131.12032 | 36000 ft | 473 kts | 230° |
| 2026-05-07 20:42 | 32.04462 | 131.06125 | 36000 ft | 472 kts | 230° |
| 2026-05-07 20:43 | 32.00209 | 131.00238 | 36002 ft | 471 kts | 230° |
| 2026-05-07 20:43 | 31.95968 | 130.94375 | 35997 ft | 470 kts | 230° |
| 2026-05-07 20:44 | 31.91727 | 130.88521 | 36003 ft | 478 kts | 230° |
| 2026-05-07 20:44 | 31.87394 | 130.82551 | 36005 ft | 477 kts | 230° |
| 2026-05-07 20:45 | 31.83133 | 130.76687 | 35993 ft | 468 kts | 229° |
| 2026-05-07 20:45 | 31.78885 | 130.70852 | 35999 ft | 471 kts | 229° |
| 2026-05-07 20:46 | 31.74615 | 130.64994 | 36000 ft | 471 kts | 229° |
| 2026-05-07 20:46 | 31.70333 | 130.59207 | 35996 ft | 468 kts | 229° |
| 2026-05-07 20:47 | 31.66356 | 130.53159 | 36006 ft | 472 kts | 232° |
| 2026-05-07 20:47 | 31.62346 | 130.47070 | 35999 ft | 469 kts | 232° |
| 2026-05-07 20:48 | 31.58352 | 130.40996 | 35996 ft | 470 kts | 232° |
| 2026-05-07 20:48 | 31.54351 | 130.34929 | 36003 ft | 470 kts | 232° |
| 2026-05-07 20:49 | 31.50353 | 130.28873 | 35992 ft | 468 kts | 232° |
| 2026-05-07 20:49 | 31.46385 | 130.22874 | 36002 ft | 469 kts | 232° |
| 2026-05-07 20:50 | 31.42380 | 130.16829 | 36001 ft | 470 kts | 232° |
| 2026-05-07 20:50 | 31.38367 | 130.10778 | 36001 ft | 470 kts | 232° |
| 2026-05-07 20:51 | 31.34363 | 130.04754 | 36001 ft | 468 kts | 232° |
| 2026-05-07 20:51 | 31.30358 | 129.98736 | 36001 ft | 469 kts | 232° |
| 2026-05-07 20:52 | 31.26339 | 129.92706 | 35997 ft | 470 kts | 232° |
| 2026-05-07 20:52 | 31.22321 | 129.86687 | 36000 ft | 469 kts | 232° |
| 2026-05-07 20:53 | 31.18305 | 129.80679 | 36003 ft | 469 kts | 232° |
| 2026-05-07 20:53 | 31.14278 | 129.74668 | 36000 ft | 470 kts | 232° |
| 2026-05-07 20:54 | 31.10277 | 129.68701 | 35998 ft | 469 kts | 232° |
| 2026-05-07 20:54 | 31.06257 | 129.62717 | 35999 ft | 469 kts | 232° |
| 2026-05-07 20:55 | 31.02223 | 129.56722 | 36001 ft | 470 kts | 232° |
| 2026-05-07 20:55 | 30.98187 | 129.50730 | 35997 ft | 469 kts | 232° |
| 2026-05-07 20:56 | 30.94153 | 129.44753 | 36002 ft | 469 kts | 232° |
| 2026-05-07 20:56 | 30.90111 | 129.38770 | 36000 ft | 469 kts | 232° |
| 2026-05-07 20:57 | 30.86067 | 129.32797 | 36000 ft | 470 kts | 232° |
| 2026-05-07 20:57 | 30.82048 | 129.26868 | 35997 ft | 469 kts | 232° |
| 2026-05-07 20:58 | 30.77962 | 129.20945 | 35998 ft | 469 kts | 232° |
| 2026-05-07 20:58 | 30.74026 | 129.14874 | 36002 ft | 470 kts | 232° |
| 2026-05-07 20:59 | 30.70054 | 129.08832 | 36000 ft | 469 kts | 233° |
| 2026-05-07 20:59 | 30.66098 | 129.02816 | 35998 ft | 469 kts | 233° |
| 2026-05-07 21:00 | 30.62149 | 128.96822 | 35997 ft | 470 kts | 233° |
| 2026-05-07 21:00 | 30.58170 | 128.90791 | 36000 ft | 469 kts | 232° |
| 2026-05-07 21:01 | 30.54201 | 128.84786 | 35999 ft | 469 kts | 232° |
| 2026-05-07 21:01 | 30.50226 | 128.78781 | 36001 ft | 469 kts | 232° |
| 2026-05-07 21:02 | 30.46272 | 128.72814 | 35999 ft | 470 kts | 232° |
| 2026-05-07 21:02 | 30.42283 | 128.66808 | 36001 ft | 469 kts | 232° |
| 2026-05-07 21:03 | 30.38300 | 128.60815 | 35999 ft | 469 kts | 232° |
| 2026-05-07 21:03 | 30.34315 | 128.54831 | 36003 ft | 470 kts | 232° |
| 2026-05-07 21:04 | 30.30318 | 128.48837 | 35998 ft | 469 kts | 232° |
| 2026-05-07 21:04 | 30.27006 | 128.43877 | 35998 ft | 469 kts | 232° |
| 2026-05-07 21:05 | 30.23013 | 128.37906 | 35997 ft | 469 kts | 232° |
| 2026-05-07 21:05 | 30.19014 | 128.31934 | 36000 ft | 470 kts | 232° |
| 2026-05-07 21:06 | 30.15015 | 128.25971 | 35997 ft | 469 kts | 232° |
| 2026-05-07 21:06 | 30.11033 | 128.20045 | 36003 ft | 469 kts | 232° |
| 2026-05-07 21:07 | 30.07024 | 128.14083 | 36000 ft | 470 kts | 232° |
| 2026-05-07 21:07 | 30.03010 | 128.08126 | 36000 ft | 469 kts | 232° |
| 2026-05-07 21:08 | 29.99003 | 128.02186 | 35999 ft | 469 kts | 232° |
| 2026-05-07 21:08 | 29.94992 | 127.96248 | 36000 ft | 470 kts | 232° |
| 2026-05-07 21:09 | 29.90969 | 127.90305 | 36001 ft | 469 kts | 232° |
| 2026-05-07 21:09 | 29.86996 | 127.84349 | 36001 ft | 469 kts | 231° |
| 2026-05-07 21:10 | 29.82766 | 127.78690 | 36003 ft | 470 kts | 230° |
| 2026-05-07 21:10 | 29.78508 | 127.72965 | 36004 ft | 470 kts | 229° |
| 2026-05-07 21:11 | 29.74258 | 127.67267 | 36000 ft | 469 kts | 229° |
| 2026-05-07 21:11 | 29.67877 | 127.58725 | 36003 ft | 470 kts | 229° |
| 2026-05-07 21:12 | 29.63613 | 127.53025 | 35998 ft | 469 kts | 229° |
| 2026-05-07 21:12 | 29.59316 | 127.47379 | 35995 ft | 469 kts | 229° |
| 2026-05-07 21:13 | 29.55294 | 127.41529 | 36004 ft | 469 kts | 231° |
| 2026-05-07 21:13 | 29.51226 | 127.35647 | 36002 ft | 470 kts | 232° |
| 2026-05-07 21:14 | 29.47169 | 127.29775 | 35996 ft | 469 kts | 232° |
| 2026-05-07 21:14 | 29.43106 | 127.23910 | 36000 ft | 469 kts | 231° |
| 2026-05-07 21:15 | 29.39042 | 127.18051 | 36002 ft | 470 kts | 232° |
| 2026-05-07 21:15 | 29.34977 | 127.12197 | 36000 ft | 469 kts | 231° |
| 2026-05-07 21:16 | 29.30907 | 127.06348 | 35999 ft | 469 kts | 231° |
| 2026-05-07 21:16 | 29.26863 | 127.00541 | 36001 ft | 470 kts | 231° |
| 2026-05-07 21:17 | 29.22787 | 126.94698 | 36002 ft | 469 kts | 231° |
| 2026-05-07 21:17 | 29.18706 | 126.88857 | 35996 ft | 469 kts | 231° |
| 2026-05-07 21:18 | 29.14624 | 126.83021 | 36002 ft | 470 kts | 231° |
| 2026-05-07 21:18 | 29.10555 | 126.77214 | 36000 ft | 469 kts | 231° |
| 2026-05-07 21:19 | 29.06477 | 126.71400 | 36002 ft | 469 kts | 231° |
| 2026-05-07 21:19 | 29.02388 | 126.65580 | 35999 ft | 469 kts | 231° |
| 2026-05-07 21:20 | 28.98329 | 126.59735 | 35995 ft | 469 kts | 232° |
| 2026-05-07 21:20 | 28.94119 | 126.54027 | 36004 ft | 469 kts | 230° |
| 2026-05-07 21:21 | 28.89913 | 126.48342 | 36003 ft | 469 kts | 230° |
| 2026-05-07 21:21 | 28.85688 | 126.42653 | 36003 ft | 470 kts | 230° |
| 2026-05-07 21:22 | 28.81491 | 126.37004 | 36001 ft | 469 kts | 230° |
| 2026-05-07 21:22 | 28.77268 | 126.31325 | 36002 ft | 469 kts | 230° |
| 2026-05-07 21:23 | 28.73039 | 126.25648 | 36003 ft | 470 kts | 230° |
| 2026-05-07 21:23 | 28.68810 | 126.19977 | 35998 ft | 469 kts | 230° |
| 2026-05-07 21:24 | 28.64542 | 126.14363 | 36000 ft | 469 kts | 229° |
| 2026-05-07 21:24 | 28.60462 | 126.08566 | 35999 ft | 470 kts | 231° |
| 2026-05-07 21:25 | 28.56357 | 126.02777 | 35996 ft | 470 kts | 231° |
| 2026-05-07 21:25 | 28.52261 | 125.96997 | 35997 ft | 469 kts | 231° |
| 2026-05-07 21:26 | 28.48186 | 125.91263 | 36000 ft | 469 kts | 231° |
| 2026-05-07 21:26 | 28.44078 | 125.85489 | 36001 ft | 470 kts | 231° |
| 2026-05-07 21:27 | 28.39967 | 125.79719 | 35999 ft | 469 kts | 231° |
| 2026-05-07 21:27 | 28.35857 | 125.73960 | 36000 ft | 469 kts | 231° |
| 2026-05-07 21:28 | 28.31742 | 125.68201 | 36001 ft | 470 kts | 231° |
| 2026-05-07 21:28 | 28.27625 | 125.62447 | 36000 ft | 469 kts | 231° |
| 2026-05-07 21:29 | 28.23536 | 125.56740 | 35996 ft | 469 kts | 231° |
| 2026-05-07 21:29 | 28.19415 | 125.50995 | 36002 ft | 470 kts | 231° |
| 2026-05-07 21:30 | 28.15290 | 125.45254 | 36000 ft | 469 kts | 231° |
| 2026-05-07 21:30 | 28.11168 | 125.39522 | 36000 ft | 469 kts | 231° |
| 2026-05-07 21:31 | 28.07035 | 125.33785 | 35999 ft | 469 kts | 231° |
| 2026-05-07 21:31 | 28.02926 | 125.28090 | 36003 ft | 470 kts | 231° |
| 2026-05-07 21:32 | 27.98799 | 125.22375 | 36002 ft | 469 kts | 231° |
| 2026-05-07 21:32 | 27.94665 | 125.16661 | 36003 ft | 469 kts | 231° |
| 2026-05-07 21:33 | 27.90525 | 125.10942 | 35996 ft | 470 kts | 231° |
| 2026-05-07 21:33 | 27.86382 | 125.05230 | 35996 ft | 469 kts | 231° |
| 2026-05-07 21:34 | 27.82262 | 124.99557 | 36001 ft | 469 kts | 231° |
| 2026-05-07 21:34 | 27.78112 | 124.93847 | 36001 ft | 470 kts | 231° |
| 2026-05-07 21:35 | 27.73963 | 124.88150 | 35999 ft | 469 kts | 231° |
| 2026-05-07 21:35 | 27.69814 | 124.82457 | 36002 ft | 469 kts | 231° |
| 2026-05-07 21:36 | 27.65686 | 124.76804 | 35998 ft | 470 kts | 231° |
| 2026-05-07 21:36 | 27.61531 | 124.71120 | 36002 ft | 469 kts | 231° |
| 2026-05-07 21:37 | 27.57381 | 124.65438 | 35998 ft | 469 kts | 231° |
| 2026-05-07 21:37 | 27.53231 | 124.59767 | 36002 ft | 469 kts | 231° |
| 2026-05-07 21:38 | 27.49070 | 124.54088 | 35999 ft | 470 kts | 231° |
| 2026-05-07 21:38 | 27.44910 | 124.48418 | 35999 ft | 469 kts | 231° |
| 2026-05-07 21:39 | 27.40748 | 124.42752 | 36001 ft | 469 kts | 230° |
| 2026-05-07 21:39 | 27.36610 | 124.37127 | 35999 ft | 470 kts | 230° |
| 2026-05-07 21:40 | 27.32440 | 124.31465 | 35999 ft | 469 kts | 230° |
| 2026-05-07 21:40 | 27.28274 | 124.25817 | 36002 ft | 469 kts | 230° |
| 2026-05-07 21:41 | 27.24102 | 124.20165 | 36003 ft | 470 kts | 230° |
| 2026-05-07 21:41 | 27.19924 | 124.14516 | 36001 ft | 469 kts | 230° |
| 2026-05-07 21:42 | 27.15753 | 124.08882 | 36002 ft | 469 kts | 230° |
| 2026-05-07 21:42 | 27.11611 | 124.03288 | 36001 ft | 469 kts | 231° |
| 2026-05-07 21:43 | 27.07412 | 123.97666 | 35999 ft | 470 kts | 230° |
| 2026-05-07 21:43 | 27.03200 | 123.92065 | 35997 ft | 469 kts | 230° |
| 2026-05-07 21:44 | 26.98985 | 123.86469 | 36003 ft | 469 kts | 230° |
| 2026-05-07 21:44 | 26.94791 | 123.80909 | 35922 ft | 470 kts | 230° |
| 2026-05-07 21:45 | 26.92677 | 123.78107 | 35471 ft | 471 kts | 230° |
| 2026-05-07 21:45 | 26.90565 | 123.75312 | 35058 ft | 468 kts | 230° |
| 2026-05-07 21:45 | 26.88472 | 123.72543 | 34681 ft | 464 kts | 230° |
| 2026-05-07 21:45 | 26.86391 | 123.69790 | 34287 ft | 461 kts | 230° |
| 2026-05-07 21:46 | 26.84323 | 123.67058 | 33906 ft | 458 kts | 230° |
| 2026-05-07 21:46 | 26.82266 | 123.64342 | 33512 ft | 455 kts | 230° |
| 2026-05-07 21:46 | 26.80224 | 123.61646 | 33126 ft | 452 kts | 230° |
| 2026-05-07 21:46 | 26.78195 | 123.58970 | 32738 ft | 450 kts | 230° |
| 2026-05-07 21:47 | 26.76176 | 123.56310 | 32347 ft | 447 kts | 230° |
| 2026-05-07 21:47 | 26.74169 | 123.53664 | 31962 ft | 445 kts | 230° |
| 2026-05-07 21:47 | 26.72171 | 123.51033 | 31570 ft | 442 kts | 230° |
| 2026-05-07 21:47 | 26.70208 | 123.48451 | 31190 ft | 440 kts | 230° |
| 2026-05-07 21:48 | 26.68231 | 123.45851 | 30809 ft | 438 kts | 230° |
| 2026-05-07 21:48 | 26.66266 | 123.43268 | 30417 ft | 435 kts | 230° |
| 2026-05-07 21:48 | 26.64303 | 123.40691 | 30030 ft | 433 kts | 230° |
| 2026-05-07 21:48 | 26.62351 | 123.38130 | 29638 ft | 431 kts | 230° |
| 2026-05-07 21:49 | 26.60407 | 123.35578 | 29250 ft | 429 kts | 230° |
| 2026-05-07 21:49 | 26.58477 | 123.33048 | 28862 ft | 427 kts | 230° |
| 2026-05-07 21:49 | 26.56545 | 123.30517 | 28471 ft | 425 kts | 230° |
| 2026-05-07 21:49 | 26.54629 | 123.28007 | 28085 ft | 424 kts | 230° |
| 2026-05-07 21:50 | 26.52721 | 123.25510 | 27696 ft | 422 kts | 230° |
| 2026-05-07 21:50 | 26.50821 | 123.23026 | 27309 ft | 420 kts | 230° |
| 2026-05-07 21:50 | 26.48947 | 123.20577 | 26922 ft | 418 kts | 230° |
| 2026-05-07 21:50 | 26.47061 | 123.18110 | 26542 ft | 417 kts | 230° |
| 2026-05-07 21:51 | 26.45181 | 123.15657 | 26147 ft | 415 kts | 230° |
| 2026-05-07 21:51 | 26.43310 | 123.13215 | 25761 ft | 413 kts | 230° |
| 2026-05-07 21:51 | 26.41442 | 123.10777 | 25354 ft | 412 kts | 230° |
| 2026-05-07 21:51 | 26.39580 | 123.08352 | 24982 ft | 410 kts | 230° |
| 2026-05-07 21:52 | 26.37726 | 123.05936 | 24596 ft | 409 kts | 230° |
| 2026-05-07 21:52 | 26.35882 | 123.03533 | 24200 ft | 407 kts | 230° |
| 2026-05-07 21:52 | 26.34043 | 123.01138 | 23824 ft | 406 kts | 230° |
| 2026-05-07 21:52 | 26.32205 | 122.98751 | 23426 ft | 404 kts | 230° |
| 2026-05-07 21:53 | 26.30379 | 122.96376 | 23046 ft | 403 kts | 229° |
| 2026-05-07 21:53 | 26.29174 | 122.94812 | 22784 ft | 402 kts | 230° |
| 2026-05-07 21:53 | 26.27360 | 122.92455 | 22482 ft | 398 kts | 229° |
| 2026-05-07 21:53 | 26.25567 | 122.90129 | 22214 ft | 394 kts | 230° |
| 2026-05-07 21:54 | 26.23789 | 122.87824 | 21960 ft | 390 kts | 229° |
| 2026-05-07 21:54 | 26.22031 | 122.85543 | 21692 ft | 386 kts | 229° |
| 2026-05-07 21:54 | 26.20288 | 122.83284 | 21425 ft | 383 kts | 230° |
| 2026-05-07 21:54 | 26.18557 | 122.81044 | 21156 ft | 380 kts | 229° |
| 2026-05-07 21:55 | 26.16839 | 122.78818 | 20903 ft | 378 kts | 229° |
| 2026-05-07 21:55 | 26.15130 | 122.76607 | 20637 ft | 375 kts | 229° |
| 2026-05-07 21:55 | 26.13430 | 122.74409 | 20369 ft | 373 kts | 229° |
| 2026-05-07 21:55 | 26.11743 | 122.72227 | 20108 ft | 371 kts | 229° |
| 2026-05-07 21:56 | 26.10063 | 122.70058 | 19854 ft | 369 kts | 229° |
| 2026-05-07 21:56 | 26.08390 | 122.67898 | 19587 ft | 367 kts | 229° |
| 2026-05-07 21:56 | 26.06749 | 122.65778 | 19325 ft | 366 kts | 229° |
| 2026-05-07 21:56 | 26.05092 | 122.63642 | 19060 ft | 364 kts | 229° |
| 2026-05-07 21:57 | 26.03436 | 122.61506 | 18807 ft | 363 kts | 229° |
| 2026-05-07 21:57 | 26.01791 | 122.59386 | 18541 ft | 361 kts | 229° |
| 2026-05-07 21:57 | 26.00152 | 122.57274 | 18279 ft | 360 kts | 229° |
| 2026-05-07 21:57 | 25.98517 | 122.55169 | 18010 ft | 359 kts | 229° |
| 2026-05-07 21:58 | 25.96890 | 122.53074 | 17758 ft | 358 kts | 229° |
| 2026-05-07 21:58 | 25.95264 | 122.50985 | 17496 ft | 357 kts | 229° |
| 2026-05-07 21:58 | 25.93643 | 122.48899 | 17227 ft | 356 kts | 229° |
| 2026-05-07 21:58 | 25.92028 | 122.46819 | 16964 ft | 355 kts | 229° |
| 2026-05-07 21:59 | 25.90416 | 122.44749 | 16708 ft | 354 kts | 229° |
| 2026-05-07 21:59 | 25.88807 | 122.42681 | 16441 ft | 353 kts | 229° |
| 2026-05-07 21:59 | 25.87201 | 122.40617 | 16174 ft | 352 kts | 229° |
| 2026-05-07 21:59 | 25.85617 | 122.38585 | 15916 ft | 351 kts | 229° |
| 2026-05-07 22:00 | 25.84020 | 122.36535 | 15658 ft | 351 kts | 229° |
| 2026-05-07 22:00 | 25.82428 | 122.34492 | 15379 ft | 350 kts | 229° |
| 2026-05-07 22:00 | 25.80826 | 122.32440 | 15019 ft | 352 kts | 229° |
| 2026-05-07 22:00 | 25.79219 | 122.30379 | 14663 ft | 354 kts | 229° |
| 2026-05-07 22:01 | 25.77604 | 122.28311 | 14310 ft | 355 kts | 229° |
| 2026-05-07 22:01 | 25.75981 | 122.26234 | 13949 ft | 356 kts | 229° |
| 2026-05-07 22:01 | 25.74355 | 122.24152 | 13591 ft | 357 kts | 229° |
| 2026-05-07 22:01 | 25.72727 | 122.22071 | 13225 ft | 357 kts | 229° |
| 2026-05-07 22:02 | 25.71100 | 122.19989 | 12855 ft | 357 kts | 229° |
| 2026-05-07 22:02 | 25.69471 | 122.17908 | 12494 ft | 357 kts | 229° |
| 2026-05-07 22:02 | 25.67839 | 122.15824 | 12129 ft | 357 kts | 229° |
| 2026-05-07 22:02 | 25.66206 | 122.13737 | 11764 ft | 357 kts | 229° |
| 2026-05-07 22:03 | 25.64577 | 122.11661 | 11400 ft | 357 kts | 229° |
| 2026-05-07 22:03 | 25.62991 | 122.09557 | 11172 ft | 352 kts | 231° |
| 2026-05-07 22:03 | 25.61490 | 122.07482 | 11080 ft | 345 kts | 232° |
| 2026-05-07 22:03 | 25.60095 | 122.05360 | 11025 ft | 337 kts | 237° |
| 2026-05-07 22:04 | 25.58868 | 122.03188 | 11008 ft | 329 kts | 238° |
| 2026-05-07 22:04 | 25.57663 | 122.01070 | 10999 ft | 322 kts | 237° |
| 2026-05-07 22:04 | 25.56464 | 121.99010 | 10998 ft | 315 kts | 237° |
| 2026-05-07 22:04 | 25.55283 | 121.96982 | 11002 ft | 313 kts | 237° |
| 2026-05-07 22:05 | 25.54135 | 121.95001 | 11031 ft | 296 kts | 237° |
| 2026-05-07 22:05 | 25.53051 | 121.93131 | 11016 ft | 281 kts | 237° |
| 2026-05-07 22:05 | 25.52013 | 121.91341 | 10739 ft | 275 kts | 237° |
| 2026-05-07 22:05 | 25.50979 | 121.89560 | 10275 ft | 275 kts | 237° |
| 2026-05-07 22:06 | 25.49938 | 121.87771 | 9832 ft | 275 kts | 237° |
| 2026-05-07 22:06 | 25.48907 | 121.85995 | 9388 ft | 274 kts | 237° |
| 2026-05-07 22:06 | 25.47875 | 121.84221 | 8937 ft | 273 kts | 237° |
| 2026-05-07 22:06 | 25.46863 | 121.82480 | 8500 ft | 273 kts | 237° |
| 2026-05-07 22:07 | 25.45847 | 121.80734 | 8218 ft | 266 kts | 237° |
| 2026-05-07 22:07 | 25.44857 | 121.79035 | 7949 ft | 260 kts | 237° |
| 2026-05-07 22:07 | 25.43888 | 121.77368 | 7676 ft | 255 kts | 237° |
| 2026-05-07 22:07 | 25.42934 | 121.75731 | 7403 ft | 251 kts | 237° |
| 2026-05-07 22:08 | 25.41997 | 121.74123 | 7135 ft | 247 kts | 237° |
| 2026-05-07 22:08 | 25.41071 | 121.72533 | 6881 ft | 244 kts | 237° |
| 2026-05-07 22:08 | 25.40156 | 121.70967 | 6616 ft | 241 kts | 237° |
| 2026-05-07 22:08 | 25.39251 | 121.69412 | 6349 ft | 239 kts | 237° |
| 2026-05-07 22:09 | 25.38353 | 121.67875 | 6085 ft | 237 kts | 237° |
| 2026-05-07 22:09 | 25.37460 | 121.66345 | 5832 ft | 235 kts | 237° |
| 2026-05-07 22:09 | 25.36576 | 121.64829 | 5567 ft | 234 kts | 237° |
| 2026-05-07 22:09 | 25.35695 | 121.63322 | 5300 ft | 233 kts | 237° |
| 2026-05-07 22:10 | 25.34819 | 121.61822 | 5042 ft | 231 kts | 237° |
| 2026-05-07 22:10 | 25.33946 | 121.60329 | 4787 ft | 230 kts | 237° |
| 2026-05-07 22:10 | 25.33090 | 121.58865 | 4530 ft | 228 kts | 237° |
| 2026-05-07 22:10 | 25.32236 | 121.57402 | 4136 ft | 228 kts | 237° |
| 2026-05-07 22:11 | 25.31404 | 121.55982 | 3981 ft | 213 kts | 237° |
| 2026-05-07 22:11 | 25.30616 | 121.54635 | 3815 ft | 204 kts | 237° |
| 2026-05-07 22:11 | 25.29859 | 121.53340 | 3619 ft | 197 kts | 237° |
| 2026-05-07 22:11 | 25.29123 | 121.52084 | 3427 ft | 192 kts | 237° |
| 2026-05-07 22:12 | 25.28406 | 121.50859 | 3215 ft | 189 kts | 237° |
| 2026-05-07 22:12 | 25.27703 | 121.49658 | 3095 ft | 182 kts | 237° |
| 2026-05-07 22:12 | 25.27029 | 121.48507 | 3044 ft | 176 kts | 237° |
| 2026-05-07 22:12 | 25.26363 | 121.47380 | 3034 ft | 173 kts | 238° |
| 2026-05-07 22:13 | 25.25711 | 121.46255 | 3034 ft | 174 kts | 238° |
| 2026-05-07 22:13 | 25.25048 | 121.45119 | 3025 ft | 177 kts | 237° |
| 2026-05-07 22:13 | 25.24383 | 121.43994 | 3007 ft | 176 kts | 237° |
| 2026-05-07 22:13 | 25.23703 | 121.42855 | 2995 ft | 170 kts | 236° |
| 2026-05-07 22:14 | 25.23070 | 121.41859 | 2969 ft | 155 kts | 234° |
| 2026-05-07 22:14 | 25.22429 | 121.40906 | 2981 ft | 154 kts | 233° |
| 2026-05-07 22:14 | 25.21761 | 121.39971 | 2993 ft | 155 kts | 231° |
| 2026-05-07 22:14 | 25.21065 | 121.39061 | 3000 ft | 155 kts | 230° |
| 2026-05-07 22:15 | 25.20352 | 121.38174 | 3001 ft | 154 kts | 228° |
| 2026-05-07 22:15 | 25.19626 | 121.37299 | 3004 ft | 154 kts | 228° |
| 2026-05-07 22:15 | 25.18890 | 121.36421 | 2911 ft | 159 kts | 227° |
| 2026-05-07 22:15 | 25.18155 | 121.35529 | 2659 ft | 155 kts | 229° |
| 2026-05-07 22:16 | 25.17458 | 121.34641 | 2429 ft | 152 kts | 230° |
| 2026-05-07 22:16 | 25.16778 | 121.33748 | 2254 ft | 152 kts | 230° |
| 2026-05-07 22:16 | 25.16095 | 121.32851 | 2071 ft | 153 kts | 230° |
| 2026-05-07 22:16 | 25.15409 | 121.31957 | 1864 ft | 152 kts | 230° |
| 2026-05-07 22:17 | 25.14720 | 121.31076 | 1669 ft | 151 kts | 230° |
| 2026-05-07 22:17 | 25.14032 | 121.30203 | 1450 ft | 150 kts | 229° |
| 2026-05-07 22:17 | 25.13346 | 121.29335 | 1260 ft | 150 kts | 229° |
| 2026-05-07 22:17 | 25.12660 | 121.28466 | 1063 ft | 150 kts | 229° |
| 2026-05-07 22:18 | 25.11978 | 121.27595 | 846 ft | 150 kts | 230° |
| 2026-05-07 22:18 | 25.10640 | 121.25865 | 447 ft | 150 kts | 231° |
| 2026-05-07 22:18 | 25.09962 | 121.24991 | 245 ft | 149 kts | 229° |
| 2026-05-07 22:19 | 25.09293 | 121.24143 | 91 ft | 140 kts | 231° |
| 2026-05-07 22:19 | 25.08736 | 121.23433 | 86 ft | 72 kts | 229° |
| 2026-05-07 22:19 | 25.08535 | 121.23227 | 87 ft | 28 kts | 204° |
| 2026-05-07 22:19 | 25.08354 | 121.23153 | 86 ft | 28 kts | 200° |
| 2026-05-07 22:20 | 25.08196 | 121.23132 | 88 ft | 16 kts | 150° |
| 2026-05-07 22:20 | 25.08125 | 121.23224 | 90 ft | 15 kts | 135° |
| 2026-05-07 22:20 | 25.08085 | 121.23263 | 90 ft | 0 kts | 140° |